MUC863 EDDE-LFSB
Flight info
| Callsign | MUC863 |
|---|---|
| Flight time | 0h 48m |
| Altitude | 38000 |
| Route | PILAM1D PILAM DCT GORKO DCT RASPU DCT UBENO/N0431F370 DCT STR |
| Aircraft | A20N/M-SDE2E3FGHIRWXY/LB1 |
Departure
| Time | 2026-04-16 10:51 |
|---|---|
| Airport | Erfurt-Weimar Airport (EDDE) |
Arrival
| Time | 2026-04-16 11:39 |
|---|---|
| Airport | EuroAirport Basel–Mulhouse–Freiburg (LFSB) |
| Time | Latitude | Longitude | Altitude | Speed | Heading |
|---|---|---|---|---|---|
| 2026-04-16 10:24 | 50.97580 | 10.96080 | 1016 ft | 0 kts | 218° |
| 2026-04-16 10:42 | 50.97579 | 10.96078 | 1016 ft | 2 kts | 219° |
| 2026-04-16 10:42 | 50.97590 | 10.96084 | 1016 ft | 4 kts | 311° |
| 2026-04-16 10:42 | 50.97593 | 10.96052 | 1016 ft | 0 kts | 97° |
| 2026-04-16 10:47 | 50.97593 | 10.96069 | 1016 ft | 6 kts | 86° |
| 2026-04-16 10:47 | 50.97626 | 10.96138 | 1016 ft | 9 kts | 56° |
| 2026-04-16 10:47 | 50.97638 | 10.96223 | 1016 ft | 7 kts | 65° |
| 2026-04-16 10:47 | 50.97677 | 10.96252 | 1016 ft | 8 kts | 6° |
| 2026-04-16 10:48 | 50.97725 | 10.96301 | 1016 ft | 9 kts | 79° |
| 2026-04-16 10:48 | 50.97717 | 10.96439 | 1016 ft | 24 kts | 99° |
| 2026-04-16 10:48 | 50.97691 | 10.96728 | 1016 ft | 27 kts | 98° |
| 2026-04-16 10:48 | 50.97678 | 10.97017 | 1016 ft | 26 kts | 83° |
| 2026-04-16 10:49 | 50.97702 | 10.97293 | 1016 ft | 20 kts | 82° |
| 2026-04-16 10:49 | 50.97715 | 10.97431 | 1016 ft | 11 kts | 76° |
| 2026-04-16 10:49 | 50.97758 | 10.97515 | 1015 ft | 9 kts | 47° |
| 2026-04-16 10:49 | 50.97803 | 10.97591 | 1014 ft | 10 kts | 45° |
| 2026-04-16 10:50 | 50.97839 | 10.97570 | 1014 ft | 8 kts | 273° |
| 2026-04-16 10:50 | 50.97839 | 10.97565 | 1014 ft | 0 kts | 273° |
| 2026-04-16 10:50 | 50.97843 | 10.97489 | 1014 ft | 34 kts | 276° |
| 2026-04-16 10:50 | 50.97905 | 10.96727 | 1018 ft | 102 kts | 277° |
| 2026-04-16 10:51 | 50.98021 | 10.95311 | 1021 ft | 154 kts | 278° |
| 2026-04-16 10:51 | 50.98161 | 10.93577 | 1589 ft | 159 kts | 275° |
| 2026-04-16 10:51 | 50.98234 | 10.91847 | 2388 ft | 156 kts | 273° |
| 2026-04-16 10:51 | 50.98291 | 10.90111 | 3003 ft | 163 kts | 272° |
| 2026-04-16 10:52 | 50.98354 | 10.88193 | 3327 ft | 185 kts | 272° |
| 2026-04-16 10:52 | 50.98393 | 10.86014 | 3641 ft | 210 kts | 270° |
| 2026-04-16 10:52 | 50.98399 | 10.83559 | 4071 ft | 235 kts | 270° |
| 2026-04-16 10:52 | 50.98400 | 10.80856 | 4654 ft | 252 kts | 270° |
| 2026-04-16 10:53 | 50.98403 | 10.78032 | 4945 ft | 257 kts | 270° |
| 2026-04-16 10:53 | 50.98411 | 10.75194 | 5003 ft | 258 kts | 270° |
| 2026-04-16 10:53 | 50.98423 | 10.72348 | 5009 ft | 258 kts | 270° |
| 2026-04-16 10:53 | 50.98432 | 10.70461 | 5010 ft | 257 kts | 270° |
| 2026-04-16 10:54 | 50.98303 | 10.67633 | 5039 ft | 259 kts | 256° |
| 2026-04-16 10:54 | 50.97526 | 10.65036 | 5779 ft | 264 kts | 235° |
| 2026-04-16 10:54 | 50.96191 | 10.63011 | 6756 ft | 270 kts | 214° |
| 2026-04-16 10:54 | 50.94429 | 10.61893 | 7591 ft | 278 kts | 195° |
| 2026-04-16 10:55 | 50.92538 | 10.61180 | 8471 ft | 281 kts | 195° |
| 2026-04-16 10:55 | 50.90611 | 10.60464 | 9341 ft | 286 kts | 195° |
| 2026-04-16 10:55 | 50.88661 | 10.59740 | 10211 ft | 290 kts | 195° |
| 2026-04-16 10:55 | 50.86648 | 10.58989 | 10696 ft | 308 kts | 194° |
| 2026-04-16 10:56 | 50.84498 | 10.58511 | 11494 ft | 308 kts | 185° |
| 2026-04-16 10:56 | 50.82368 | 10.58525 | 12565 ft | 306 kts | 178° |
| 2026-04-16 10:56 | 50.80272 | 10.59000 | 13412 ft | 310 kts | 171° |
| 2026-04-16 10:56 | 50.78152 | 10.59699 | 14169 ft | 313 kts | 171° |
| 2026-04-16 10:57 | 50.76005 | 10.60409 | 14851 ft | 317 kts | 171° |
| 2026-04-16 10:57 | 50.73837 | 10.61126 | 15548 ft | 320 kts | 171° |
| 2026-04-16 10:57 | 50.71639 | 10.61854 | 16228 ft | 323 kts | 171° |
| 2026-04-16 10:57 | 50.69429 | 10.62586 | 16914 ft | 327 kts | 171° |
| 2026-04-16 10:58 | 50.67192 | 10.63324 | 17582 ft | 330 kts | 172° |
| 2026-04-16 10:58 | 50.64933 | 10.64065 | 18264 ft | 333 kts | 172° |
| 2026-04-16 10:58 | 50.62653 | 10.64813 | 18873 ft | 337 kts | 172° |
| 2026-04-16 10:58 | 50.60339 | 10.65573 | 19448 ft | 340 kts | 172° |
| 2026-04-16 10:59 | 50.58008 | 10.66339 | 20021 ft | 343 kts | 172° |
| 2026-04-16 10:59 | 50.55659 | 10.67112 | 20594 ft | 346 kts | 172° |
| 2026-04-16 10:59 | 50.53288 | 10.67892 | 21145 ft | 349 kts | 172° |
| 2026-04-16 10:59 | 50.50932 | 10.68663 | 21680 ft | 352 kts | 173° |
| 2026-04-16 11:00 | 50.48506 | 10.69159 | 22224 ft | 351 kts | 181° |
| 2026-04-16 11:00 | 50.46063 | 10.69136 | 22769 ft | 350 kts | 189° |
| 2026-04-16 11:00 | 50.43661 | 10.68594 | 23320 ft | 349 kts | 197° |
| 2026-04-16 11:00 | 50.41327 | 10.67555 | 23863 ft | 347 kts | 205° |
| 2026-04-16 11:01 | 50.39119 | 10.66050 | 24310 ft | 346 kts | 213° |
| 2026-04-16 11:01 | 50.37062 | 10.64118 | 24764 ft | 344 kts | 220° |
| 2026-04-16 11:01 | 50.35088 | 10.61975 | 25221 ft | 346 kts | 219° |
| 2026-04-16 11:01 | 50.33099 | 10.59830 | 25686 ft | 348 kts | 219° |
| 2026-04-16 11:02 | 50.31093 | 10.57676 | 26157 ft | 350 kts | 219° |
| 2026-04-16 11:02 | 50.29083 | 10.55522 | 26696 ft | 349 kts | 219° |
| 2026-04-16 11:02 | 50.27085 | 10.53377 | 27283 ft | 348 kts | 220° |
| 2026-04-16 11:02 | 50.25112 | 10.51216 | 27854 ft | 344 kts | 223° |
| 2026-04-16 11:03 | 50.23312 | 10.48798 | 28424 ft | 339 kts | 230° |
| 2026-04-16 11:03 | 50.21735 | 10.46095 | 28988 ft | 334 kts | 236° |
| 2026-04-16 11:03 | 50.19223 | 10.40122 | 30084 ft | 327 kts | 243° |
| 2026-04-16 11:04 | 50.18043 | 10.37102 | 30564 ft | 326 kts | 243° |
| 2026-04-16 11:04 | 50.16852 | 10.34093 | 30954 ft | 326 kts | 243° |
| 2026-04-16 11:04 | 50.15660 | 10.31092 | 31362 ft | 325 kts | 243° |
| 2026-04-16 11:04 | 50.14474 | 10.28089 | 31776 ft | 324 kts | 243° |
| 2026-04-16 11:05 | 50.13296 | 10.25096 | 32195 ft | 323 kts | 243° |
| 2026-04-16 11:05 | 50.12117 | 10.22101 | 32504 ft | 326 kts | 243° |
| 2026-04-16 11:05 | 50.10930 | 10.19087 | 32640 ft | 334 kts | 243° |
| 2026-04-16 11:05 | 50.09701 | 10.15966 | 32772 ft | 342 kts | 242° |
| 2026-04-16 11:06 | 50.08444 | 10.12774 | 32909 ft | 349 kts | 242° |
| 2026-04-16 11:06 | 50.07265 | 10.09436 | 33048 ft | 353 kts | 249° |
| 2026-04-16 11:06 | 50.06362 | 10.05858 | 33192 ft | 358 kts | 253° |
| 2026-04-16 11:06 | 50.05514 | 10.02178 | 33326 ft | 364 kts | 253° |
| 2026-04-16 11:07 | 50.04649 | 9.98455 | 33463 ft | 368 kts | 253° |
| 2026-04-16 11:07 | 50.03770 | 9.94685 | 33650 ft | 373 kts | 253° |
| 2026-04-16 11:07 | 50.02880 | 9.90879 | 33908 ft | 375 kts | 253° |
| 2026-04-16 11:07 | 50.01992 | 9.87061 | 34150 ft | 376 kts | 253° |
| 2026-04-16 11:08 | 50.01103 | 9.83221 | 34383 ft | 378 kts | 253° |
| 2026-04-16 11:08 | 50.00217 | 9.79412 | 34579 ft | 381 kts | 253° |
| 2026-04-16 11:08 | 49.99307 | 9.75532 | 34771 ft | 383 kts | 253° |
| 2026-04-16 11:08 | 49.98385 | 9.71618 | 34976 ft | 386 kts | 253° |
| 2026-04-16 11:09 | 49.97459 | 9.67690 | 35177 ft | 388 kts | 253° |
| 2026-04-16 11:09 | 49.96531 | 9.63744 | 35385 ft | 390 kts | 253° |
| 2026-04-16 11:09 | 49.95599 | 9.59783 | 35593 ft | 392 kts | 253° |
| 2026-04-16 11:09 | 49.94657 | 9.55799 | 35760 ft | 394 kts | 253° |
| 2026-04-16 11:10 | 49.93705 | 9.51787 | 35901 ft | 398 kts | 253° |
| 2026-04-16 11:10 | 49.92743 | 9.47734 | 36026 ft | 401 kts | 253° |
| 2026-04-16 11:10 | 49.91773 | 9.43654 | 36146 ft | 404 kts | 253° |
| 2026-04-16 11:10 | 49.90797 | 9.39551 | 36281 ft | 407 kts | 253° |
| 2026-04-16 11:11 | 49.89814 | 9.35420 | 36402 ft | 410 kts | 253° |
| 2026-04-16 11:11 | 49.88825 | 9.31265 | 36536 ft | 412 kts | 253° |
| 2026-04-16 11:11 | 49.87825 | 9.27082 | 36725 ft | 413 kts | 253° |
| 2026-04-16 11:11 | 49.86829 | 9.22920 | 36912 ft | 414 kts | 252° |
| 2026-04-16 11:12 | 49.85825 | 9.18734 | 37131 ft | 414 kts | 252° |
| 2026-04-16 11:12 | 49.84818 | 9.14560 | 37345 ft | 414 kts | 252° |
| 2026-04-16 11:12 | 49.83808 | 9.10387 | 37549 ft | 414 kts | 252° |
| 2026-04-16 11:12 | 49.82811 | 9.06264 | 37712 ft | 414 kts | 252° |
| 2026-04-16 11:13 | 49.81800 | 9.02084 | 37928 ft | 414 kts | 252° |
| 2026-04-16 11:13 | 49.80791 | 8.97917 | 38136 ft | 414 kts | 252° |
| 2026-04-16 11:13 | 49.79775 | 8.93738 | 38234 ft | 416 kts | 252° |
| 2026-04-16 11:14 | 49.77721 | 8.85326 | 38243 ft | 418 kts | 252° |
| 2026-04-16 11:14 | 49.75660 | 8.76908 | 38244 ft | 419 kts | 251° |
| 2026-04-16 11:15 | 49.72642 | 8.69230 | 38244 ft | 428 kts | 231° |
| 2026-04-16 11:15 | 49.67876 | 8.63556 | 38244 ft | 439 kts | 216° |
| 2026-04-16 11:16 | 49.62643 | 8.58697 | 38232 ft | 439 kts | 216° |
| 2026-04-16 11:16 | 49.57413 | 8.53821 | 38240 ft | 439 kts | 216° |
| 2026-04-16 11:17 | 49.52173 | 8.48960 | 38246 ft | 440 kts | 216° |
| 2026-04-16 11:17 | 49.46918 | 8.44104 | 38254 ft | 441 kts | 216° |
| 2026-04-16 11:18 | 49.41656 | 8.39249 | 38225 ft | 441 kts | 216° |
| 2026-04-16 11:18 | 49.36391 | 8.34409 | 38230 ft | 441 kts | 216° |
| 2026-04-16 11:19 | 49.31107 | 8.29576 | 38237 ft | 442 kts | 216° |
| 2026-04-16 11:19 | 49.25827 | 8.24758 | 38182 ft | 443 kts | 216° |
| 2026-04-16 11:19 | 49.23179 | 8.22343 | 37869 ft | 442 kts | 216° |
| 2026-04-16 11:20 | 49.20536 | 8.19933 | 37599 ft | 443 kts | 216° |
| 2026-04-16 11:20 | 49.17888 | 8.17515 | 37329 ft | 444 kts | 216° |
| 2026-04-16 11:20 | 49.15234 | 8.15095 | 37062 ft | 445 kts | 216° |
| 2026-04-16 11:20 | 49.12575 | 8.12679 | 36803 ft | 445 kts | 216° |
| 2026-04-16 11:21 | 49.09909 | 8.10261 | 36550 ft | 446 kts | 216° |
| 2026-04-16 11:21 | 49.07239 | 8.07844 | 36297 ft | 447 kts | 216° |
| 2026-04-16 11:21 | 49.04562 | 8.05426 | 36028 ft | 448 kts | 216° |
| 2026-04-16 11:21 | 49.01870 | 8.02990 | 35205 ft | 452 kts | 216° |
| 2026-04-16 11:22 | 48.99156 | 8.00531 | 34339 ft | 455 kts | 216° |
| 2026-04-16 11:22 | 48.96421 | 7.98059 | 33363 ft | 459 kts | 216° |
| 2026-04-16 11:22 | 48.93668 | 7.95581 | 32388 ft | 461 kts | 216° |
| 2026-04-16 11:22 | 48.90895 | 7.93091 | 31365 ft | 465 kts | 215° |
| 2026-04-16 11:23 | 48.88097 | 7.90581 | 30381 ft | 467 kts | 215° |
| 2026-04-16 11:23 | 48.85290 | 7.88068 | 29173 ft | 471 kts | 214° |
| 2026-04-16 11:23 | 48.82456 | 7.85540 | 28014 ft | 472 kts | 214° |
| 2026-04-16 11:23 | 48.79608 | 7.83002 | 26776 ft | 478 kts | 213° |
| 2026-04-16 11:24 | 48.76759 | 7.80458 | 25526 ft | 484 kts | 213° |
| 2026-04-16 11:24 | 48.73843 | 7.77857 | 24305 ft | 489 kts | 213° |
| 2026-04-16 11:24 | 48.70865 | 7.75206 | 23063 ft | 491 kts | 212° |
| 2026-04-16 11:24 | 48.67983 | 7.72648 | 22424 ft | 480 kts | 212° |
| 2026-04-16 11:25 | 48.65116 | 7.70104 | 21587 ft | 475 kts | 212° |
| 2026-04-16 11:25 | 48.62284 | 7.67588 | 20788 ft | 468 kts | 212° |
| 2026-04-16 11:25 | 48.59525 | 7.65144 | 19519 ft | 455 kts | 212° |
| 2026-04-16 11:25 | 48.56821 | 7.62756 | 18585 ft | 440 kts | 212° |
| 2026-04-16 11:26 | 48.54252 | 7.60490 | 18133 ft | 415 kts | 212° |
| 2026-04-16 11:26 | 48.51764 | 7.58418 | 17644 ft | 408 kts | 206° |
| 2026-04-16 11:26 | 48.49104 | 7.56953 | 17108 ft | 404 kts | 196° |
| 2026-04-16 11:26 | 48.46370 | 7.56128 | 16619 ft | 399 kts | 190° |
| 2026-04-16 11:27 | 48.43646 | 7.55449 | 16136 ft | 394 kts | 191° |
| 2026-04-16 11:27 | 48.40962 | 7.54765 | 15663 ft | 389 kts | 191° |
| 2026-04-16 11:27 | 48.38306 | 7.54083 | 15126 ft | 386 kts | 191° |
| 2026-04-16 11:27 | 48.35668 | 7.53404 | 14764 ft | 376 kts | 191° |
| 2026-04-16 11:28 | 48.33185 | 7.52767 | 14639 ft | 348 kts | 191° |
| 2026-04-16 11:28 | 48.30875 | 7.52177 | 14507 ft | 325 kts | 191° |
| 2026-04-16 11:28 | 48.28685 | 7.51618 | 14112 ft | 314 kts | 191° |
| 2026-04-16 11:28 | 48.26575 | 7.51074 | 13529 ft | 310 kts | 191° |
| 2026-04-16 11:29 | 48.24456 | 7.50528 | 12923 ft | 306 kts | 191° |
| 2026-04-16 11:29 | 48.22367 | 7.49992 | 12321 ft | 302 kts | 190° |
| 2026-04-16 11:29 | 48.20299 | 7.49462 | 11743 ft | 299 kts | 190° |
| 2026-04-16 11:29 | 48.18257 | 7.48943 | 11155 ft | 294 kts | 190° |
| 2026-04-16 11:30 | 48.16232 | 7.48429 | 10710 ft | 295 kts | 189° |
| 2026-04-16 11:30 | 48.14214 | 7.47921 | 10390 ft | 293 kts | 189° |
| 2026-04-16 11:30 | 48.12209 | 7.47416 | 10058 ft | 291 kts | 189° |
| 2026-04-16 11:30 | 48.10242 | 7.46918 | 9705 ft | 289 kts | 189° |
| 2026-04-16 11:31 | 48.08260 | 7.46418 | 9333 ft | 287 kts | 189° |
| 2026-04-16 11:31 | 48.06298 | 7.45923 | 8966 ft | 285 kts | 189° |
| 2026-04-16 11:31 | 48.04349 | 7.45435 | 8602 ft | 283 kts | 189° |
| 2026-04-16 11:31 | 48.02418 | 7.44951 | 8217 ft | 281 kts | 189° |
| 2026-04-16 11:32 | 48.00500 | 7.44468 | 7823 ft | 279 kts | 189° |
| 2026-04-16 11:32 | 47.98593 | 7.43987 | 7444 ft | 277 kts | 188° |
| 2026-04-16 11:32 | 47.96692 | 7.43507 | 7065 ft | 276 kts | 188° |
| 2026-04-16 11:32 | 47.94803 | 7.43031 | 6679 ft | 275 kts | 188° |
| 2026-04-16 11:33 | 47.92918 | 7.42555 | 6279 ft | 273 kts | 188° |
| 2026-04-16 11:33 | 47.91033 | 7.42079 | 5666 ft | 279 kts | 188° |
| 2026-04-16 11:33 | 47.89100 | 7.41594 | 5264 ft | 277 kts | 189° |
| 2026-04-16 11:33 | 47.87240 | 7.41126 | 5162 ft | 264 kts | 188° |
| 2026-04-16 11:34 | 47.85474 | 7.40682 | 5043 ft | 252 kts | 189° |
| 2026-04-16 11:34 | 47.83811 | 7.40267 | 4931 ft | 239 kts | 188° |
| 2026-04-16 11:34 | 47.82206 | 7.39866 | 4826 ft | 229 kts | 188° |
| 2026-04-16 11:34 | 47.80647 | 7.39474 | 4726 ft | 227 kts | 188° |
| 2026-04-16 11:35 | 47.79086 | 7.39264 | 4618 ft | 225 kts | 173° |
| 2026-04-16 11:35 | 47.77585 | 7.39897 | 4355 ft | 226 kts | 155° |
| 2026-04-16 11:35 | 47.76162 | 7.40904 | 4053 ft | 227 kts | 153° |
| 2026-04-16 11:35 | 47.74764 | 7.41901 | 3756 ft | 218 kts | 153° |
| 2026-04-16 11:36 | 47.73427 | 7.42841 | 3478 ft | 208 kts | 154° |
| 2026-04-16 11:36 | 47.72161 | 7.43727 | 3205 ft | 194 kts | 154° |
| 2026-04-16 11:36 | 47.70981 | 7.44553 | 2944 ft | 180 kts | 154° |
| 2026-04-16 11:36 | 47.69882 | 7.45322 | 2693 ft | 169 kts | 154° |
| 2026-04-16 11:37 | 47.68851 | 7.46053 | 2464 ft | 161 kts | 153° |
| 2026-04-16 11:37 | 47.68190 | 7.46537 | 2306 ft | 159 kts | 153° |
| 2026-04-16 11:37 | 47.66862 | 7.47466 | 2032 ft | 157 kts | 155° |
| 2026-04-16 11:37 | 47.65873 | 7.48153 | 1830 ft | 157 kts | 153° |
| 2026-04-16 11:38 | 47.65223 | 7.48612 | 1670 ft | 156 kts | 155° |
| 2026-04-16 11:38 | 47.64227 | 7.49255 | 1454 ft | 155 kts | 154° |
| 2026-04-16 11:38 | 47.63253 | 7.49954 | 1225 ft | 155 kts | 153° |
| 2026-04-16 11:38 | 47.61952 | 7.50858 | 974 ft | 156 kts | 154° |
| 2026-04-16 11:39 | 47.61292 | 7.51324 | 899 ft | 155 kts | 154° |
| 2026-04-16 11:39 | 47.60405 | 7.51953 | 883 ft | 110 kts | 155° |
| 2026-04-16 11:39 | 47.59981 | 7.52241 | 888 ft | 33 kts | 155° |
| 2026-04-16 11:39 | 47.59836 | 7.52356 | 887 ft | 12 kts | 128° |
| 2026-04-16 11:40 | 47.59850 | 7.52459 | 886 ft | 10 kts | 66° |
| 2026-04-16 11:40 | 47.59877 | 7.52541 | 886 ft | 8 kts | 64° |
| 2026-04-16 11:40 | 47.59896 | 7.52601 | 888 ft | 3 kts | 65° |
| 2026-04-16 11:40 | 47.59905 | 7.52631 | 890 ft | 4 kts | 65° |
| 2026-04-16 11:41 | 47.59911 | 7.52651 | 891 ft | 4 kts | 66° |
| 2026-04-16 11:41 | 47.59917 | 7.52670 | 892 ft | 4 kts | 66° |
| 2026-04-16 11:41 | 47.59926 | 7.52698 | 892 ft | 0 kts | 53° |